Time;durP1;ratioP1;P1;durP2;ratioP2;P2;SDS_P1;SDS_P2;PMS_P1;PMS_P2;Temp;Humidity;BMP_temperature;BMP_pressure;BME280_temperature;BME280_humidity;BME280_pressure;Samples;Min_cycle;Max_cycle;Signal;HPM_P1;HPM_P2
2022/07/16 00:03:42;;;;;;;5.50;2.60;;;;;;;14.99;100.00;99896.44;5072640;28;20028;-86
2022/07/16 00:06:08;;;;;;;3.42;2.15;;;;;;;15.20;100.00;99899.91;5070917;28;20123;-86
2022/07/16 00:08:33;;;;;;;3.40;3.10;;;;;;;15.19;100.00;99895.63;5073701;28;20027;-85
2022/07/16 00:10:59;;;;;;;6.05;3.70;;;;;;;15.22;100.00;99900.50;5071564;28;20060;-86
2022/07/16 00:13:25;;;;;;;4.45;3.83;;;;;;;15.06;100.00;99895.63;5073677;28;20034;-84
2022/07/16 00:15:54;;;;;;;3.05;2.55;;;;;;;15.04;100.00;99895.84;5074341;28;20024;-87
2022/07/16 00:21:04;;;;;;;4.88;3.13;;;;;;;14.93;100.00;99909.66;5073484;28;20030;-87
2022/07/16 00:23:30;;;;;;;6.13;3.85;;;;;;;14.80;100.00;99905.97;5072316;28;20029;-86
2022/07/16 00:25:55;;;;;;;5.68;3.25;;;;;;;14.72;100.00;99906.16;5073390;28;20074;-86
2022/07/16 00:28:21;;;;;;;7.50;3.63;;;;;;;14.87;100.00;99916.56;5070930;28;20028;-87
2022/07/16 00:30:46;;;;;;;3.70;3.00;;;;;;;14.83;100.00;99902.13;5070501;28;20029;-88
2022/07/16 00:33:12;;;;;;;6.22;3.15;;;;;;;15.05;100.00;99899.28;5072730;28;20025;-87
2022/07/16 00:35:38;;;;;;;5.55;3.50;;;;;;;14.95;100.00;99895.22;5069908;28;20025;-86
2022/07/16 00:38:04;;;;;;;4.57;3.15;;;;;;;15.09;100.00;99896.03;5073810;28;20036;-87
2022/07/16 00:40:30;;;;;;;6.13;3.67;;;;;;;14.82;100.00;99908.41;5070081;28;20038;-88
2022/07/16 00:42:56;;;;;;;3.25;2.90;;;;;;;14.73;100.00;99896.41;5056858;28;20124;-88
2022/07/16 00:45:21;;;;;;;5.07;2.92;;;;;;;14.94;100.00;99895.41;5073840;28;20112;-87
2022/07/16 00:47:47;;;;;;;6.03;3.05;;;;;;;14.67;100.00;99909.38;5073018;28;20021;-86
2022/07/16 00:50:13;;;;;;;6.28;3.08;;;;;;;14.81;100.00;99906.78;5072925;28;20028;-86
2022/07/16 00:52:39;;;;;;;4.70;2.92;;;;;;;14.91;100.00;99899.28;5074557;28;20043;-87
2022/07/16 00:55:05;;;;;;;3.45;2.70;;;;;;;14.67;100.00;99900.66;5069931;28;20028;-85
2022/07/16 00:57:31;;;;;;;9.15;3.17;;;;;;;14.82;100.00;99887.28;5073222;28;20028;-86
2022/07/16 00:59:56;;;;;;;5.97;2.75;;;;;;;14.84;100.00;99904.56;5072038;28;20031;-86
2022/07/16 01:02:22;;;;;;;5.20;2.88;;;;;;;14.74;100.00;99908.59;5069987;28;20024;-85
2022/07/16 01:04:48;;;;;;;4.22;3.13;;;;;;;14.83;100.00;99902.13;5069854;28;20120;-85
2022/07/16 01:07:14;;;;;;;5.82;4.30;;;;;;;15.01;100.00;99900.72;5068776;28;20497;-85
2022/07/16 01:09:40;;;;;;;6.50;4.45;;;;;;;14.96;100.00;99902.16;5071419;28;20020;-85
2022/07/16 01:12:06;;;;;;;5.95;3.78;;;;;;;14.73;100.00;99912.25;5072076;28;20028;-87
2022/07/16 01:14:31;;;;;;;4.35;2.90;;;;;;;14.73;100.00;99906.97;5070820;28;20036;-85
2022/07/16 01:16:57;;;;;;;4.32;2.90;;;;;;;14.53;100.00;99912.97;5070650;28;20028;-86
2022/07/16 01:19:23;;;;;;;6.00;3.38;;;;;;;14.77;100.00;99909.00;5072289;28;20035;-87
2022/07/16 01:21:49;;;;;;;6.25;4.03;;;;;;;14.77;100.00;99906.38;5072021;28;20544;-87
2022/07/16 01:24:15;;;;;;;6.72;4.63;;;;;;;14.82;100.00;99901.28;5072370;28;20028;-87
2022/07/16 01:26:40;;;;;;;7.32;4.85;;;;;;;14.83;100.00;99904.75;5072343;28;20504;-86
2022/07/16 01:29:06;;;;;;;7.68;5.00;;;;;;;14.56;100.00;99907.31;5069986;28;20032;-86
2022/07/16 01:31:32;;;;;;;6.80;5.15;;;;;;;14.68;100.00;99900.44;5054486;28;20036;-86
2022/07/16 01:36:58;;;;;;;7.35;3.75;;;;;;;14.59;100.00;99906.09;5071770;28;20036;-87
2022/07/16 01:39:26;;;;;;;5.32;3.50;;;;;;;14.46;100.00;99913.00;5069555;28;20496;-85
2022/07/16 01:41:54;;;;;;;4.90;3.40;;;;;;;14.59;100.00;99911.38;5071763;28;20082;-86
2022/07/16 01:44:24;;;;;;;8.45;4.40;;;;;;;14.60;100.00;99908.56;5073232;28;20036;-86
2022/07/16 01:46:54;;;;;;;7.00;4.25;;;;;;;14.46;100.00;99912.16;5070740;28;20394;-85
2022/07/16 01:49:21;;;;;;;5.38;3.97;;;;;;;14.45;100.00;99910.53;5073191;28;20474;-85
2022/07/16 01:51:47;;;;;;;5.65;4.60;;;;;;;14.57;100.00;99904.47;5072540;28;20029;-86
2022/07/16 01:54:12;;;;;;;8.60;4.55;;;;;;;14.56;100.00;99917.91;5071541;28;20066;-86
2022/07/16 01:56:38;;;;;;;7.47;4.63;;;;;;;14.35;100.00;99913.53;5072161;28;20478;-86
2022/07/16 01:59:04;;;;;;;5.35;3.97;;;;;;;14.47;100.00;99919.91;5074495;28;20037;-86
2022/07/16 02:01:30;;;;;;;4.55;3.78;;;;;;;14.33;100.00;99913.72;5067963;28;20028;-88
2022/07/16 02:03:57;;;;;;;4.47;3.63;;;;;;;14.35;100.00;99917.03;5070908;28;20025;-87
2022/07/16 02:06:22;;;;;;;5.80;4.10;;;;;;;14.36;100.00;99909.91;5054124;28;20032;-87
2022/07/16 02:08:48;;;;;;;6.13;4.40;;;;;;;14.45;100.00;99911.38;5072028;28;20111;-85
2022/07/16 02:11:14;;;;;;;7.22;4.75;;;;;;;14.61;100.00;99904.91;5071703;28;20470;-85
2022/07/16 02:13:40;;;;;;;6.03;4.07;;;;;;;14.48;100.00;99912.78;5071171;28;20120;-86
2022/07/16 02:16:06;;;;;;;4.63;3.88;;;;;;;14.51;100.00;99909.72;5072204;28;20486;-86
2022/07/16 02:18:31;;;;;;;6.82;3.63;;;;;;;14.39;100.00;99922.69;5074683;28;20485;-87
2022/07/16 02:20:57;;;;;;;6.13;3.88;;;;;;;14.23;100.00;99924.66;5076194;28;20052;-87
2022/07/16 02:23:23;;;;;;;5.55;3.60;;;;;;;14.29;100.00;99931.00;5075531;28;20035;-85
2022/07/16 02:25:49;;;;;;;7.40;3.95;;;;;;;14.43;100.00;99927.41;5074904;28;20044;-85
2022/07/16 02:28:14;;;;;;;6.50;3.92;;;;;;;14.42;100.00;99931.06;5072349;28;20028;-85
2022/07/16 02:30:43;;;;;;;7.30;3.70;;;;;;;14.41;100.00;99932.06;5076002;28;20035;-85
2022/07/16 02:33:10;;;;;;;5.72;3.88;;;;;;;14.38;100.00;99937.75;5076443;28;20478;-85
2022/07/16 02:35:37;;;;;;;7.25;3.80;;;;;;;14.21;100.00;99939.09;5077566;28;21351;-85
2022/07/16 02:38:03;;;;;;;7.95;4.07;;;;;;;14.12;100.00;99933.16;5076107;28;20107;-86
2022/07/16 02:40:29;;;;;;;4.35;3.53;;;;;;;14.22;100.00;99932.78;5077168;28;20078;-87
2022/07/16 02:42:55;;;;;;;4.85;3.92;;;;;;;14.33;100.00;99932.22;5076246;28;20032;-86
2022/07/16 02:45:22;;;;;;;6.80;4.05;;;;;;;14.24;100.00;99930.78;5076445;28;20032;-86
2022/07/16 02:47:47;;;;;;;6.93;3.83;;;;;;;14.27;100.00;99925.09;5075871;28;20466;-86
2022/07/16 02:50:13;;;;;;;5.97;4.35;;;;;;;14.45;100.00;99915.81;5076013;28;20036;-86
2022/07/16 02:52:38;;;;;;;7.50;4.47;;;;;;;14.44;100.00;99925.56;5075542;28;20063;-85
2022/07/16 02:55:05;;;;;;;5.97;4.28;;;;;;;14.46;100.00;99923.56;5075666;28;20031;-85
2022/07/16 02:57:30;;;;;;;5.88;4.25;;;;;;;14.09;100.00;99928.28;5073622;28;20039;-87
2022/07/16 02:59:56;;;;;;;4.95;4.00;;;;;;;14.10;100.00;99925.41;5073749;28;20385;-85
2022/07/16 03:02:22;;;;;;;5.20;4.00;;;;;;;14.10;100.00;99935.97;5074895;28;20039;-87
2022/07/16 03:04:47;;;;;;;7.60;3.38;;;;;;;14.26;100.00;99928.75;5077339;28;20051;-87
2022/07/16 03:07:13;;;;;;;8.02;4.07;;;;;;;14.29;100.00;99928.34;5074858;28;20025;-86
2022/07/16 03:09:38;;;;;;;8.55;3.70;;;;;;;14.08;100.00;99931.94;5075360;28;20078;-87
2022/07/16 03:12:04;;;;;;;5.70;3.45;;;;;;;14.07;100.00;99936.38;5075062;28;20077;-86
2022/07/16 03:14:30;;;;;;;4.30;3.72;;;;;;;14.12;100.00;99933.97;5075909;28;20072;-87
2022/07/16 03:16:56;;;;;;;6.10;3.72;;;;;;;14.17;100.00;99929.94;5074989;28;20385;-86
2022/07/16 03:19:21;;;;;;;8.02;4.25;;;;;;;14.25;100.00;99932.41;5074415;28;20024;-86
2022/07/16 03:21:47;;;;;;;6.18;4.32;;;;;;;14.35;100.00;99943.44;5074221;28;20103;-87
2022/07/16 03:24:13;;;;;;;8.25;4.20;;;;;;;14.13;100.00;99940.06;5074305;28;20043;-86
2022/07/16 03:26:39;;;;;;;10.32;4.22;;;;;;;13.99;100.00;99949.75;5072248;28;20036;-87
2022/07/16 03:29:04;;;;;;;6.97;4.30;;;;;;;14.01;100.00;99937.16;5075251;28;20025;-87
2022/07/16 03:31:30;;;;;;;11.52;4.55;;;;;;;13.93;100.00;99929.38;5075798;28;20040;-85
2022/07/16 03:33:55;;;;;;;6.30;4.20;;;;;;;13.98;100.00;99927.00;5108836;28;20036;-86
2022/07/16 03:36:22;;;;;;;4.45;4.00;;;;;;;13.79;100.00;99920.59;5057626;28;20517;-87
2022/07/16 03:38:59;;;;;;;7.78;4.60;;;;;;;13.92;100.00;99919.84;5076114;28;20082;-86
2022/07/16 03:41:25;;;;;;;10.68;4.70;;;;;;;13.92;100.00;99911.94;5074793;28;20024;-87
2022/07/16 03:43:50;;;;;;;4.68;4.00;;;;;;;13.79;100.00;99918.78;5073160;28;20038;-87
2022/07/16 03:46:16;;;;;;;6.80;4.30;;;;;;;13.94;100.00;99916.00;5072904;28;20474;-86
2022/07/16 03:48:42;;;;;;;9.20;3.88;;;;;;;13.95;100.00;99911.53;5075087;28;20052;-86
2022/07/16 03:51:09;;;;;;;6.72;4.00;;;;;;;13.85;100.00;99917.16;5075011;28;20072;-86
2022/07/16 03:53:35;;;;;;;5.22;3.58;;;;;;;13.84;100.00;99908.44;5076639;28;20060;-87
2022/07/16 03:56:01;;;;;;;7.53;3.97;;;;;;;13.87;100.00;99911.69;5073804;28;20040;-86
2022/07/16 03:58:26;;;;;;;7.82;3.80;;;;;;;13.88;100.00;99911.53;5074111;28;20025;-86
2022/07/16 04:00:53;;;;;;;5.10;4.00;;;;;;;13.88;100.00;99916.78;5072427;28;20383;-88
2022/07/16 04:03:19;;;;;;;5.43;3.58;;;;;;;13.94;100.00;99923.94;5073983;28;20046;-86
2022/07/16 04:05:45;;;;;;;6.45;3.20;;;;;;;14.06;100.00;99924.19;5074674;28;20107;-85
2022/07/16 04:08:10;;;;;;;6.28;3.83;;;;;;;13.84;100.00;99920.81;5073862;28;20059;-85
2022/07/16 04:10:36;;;;;;;5.60;3.65;;;;;;;14.07;100.00;99930.28;5074586;28;20064;-86
2022/07/16 04:13:02;;;;;;;7.07;3.78;;;;;;;13.78;100.00;99925.06;5075580;28;20032;-85
2022/07/16 04:15:28;;;;;;;8.23;3.97;;;;;;;13.91;100.00;99916.41;5074895;28;20436;-86
2022/07/16 04:17:54;;;;;;;7.18;3.88;;;;;;;13.81;100.00;99927.31;5074392;28;20397;-85
2022/07/16 04:20:20;;;;;;;8.85;3.72;;;;;;;13.81;100.00;99918.56;5075262;28;20028;-86
2022/07/16 04:22:45;;;;;;;7.65;4.05;;;;;;;14.01;100.00;99921.31;5073938;28;20029;-86
2022/07/16 04:25:13;;;;;;;10.00;4.63;;;;;;;13.75;100.00;99922.00;5074023;28;20033;-86
2022/07/16 04:27:39;;;;;;;6.38;3.70;;;;;;;13.85;100.00;99910.06;5074984;28;20024;-86
2022/07/16 04:30:07;;;;;;;6.40;4.03;;;;;;;13.95;100.00;99912.34;5076087;28;20036;-85
2022/07/16 04:32:34;;;;;;;8.27;3.63;;;;;;;13.84;100.00;99905.81;5077478;28;20045;-86
2022/07/16 04:35:00;;;;;;;5.82;4.05;;;;;;;13.84;100.00;99895.25;5082696;28;20390;-86
2022/07/16 04:37:26;;;;;;;5.13;3.85;;;;;;;13.99;100.00;99907.50;5063367;28;20033;-85
2022/07/16 04:39:52;;;;;;;7.32;4.03;;;;;;;14.23;100.00;99913.31;5079065;28;20028;-85
2022/07/16 04:42:17;;;;;;;5.22;3.78;;;;;;;14.48;100.00;99915.41;5075819;28;20034;-85
2022/07/16 04:44:43;;;;;;;10.18;3.88;;;;;;;14.27;100.00;99917.16;5073472;28;20032;-86
2022/07/16 04:47:09;;;;;;;6.20;3.55;;;;;;;14.47;100.00;99906.69;5073098;28;20202;-86
2022/07/16 04:49:35;;;;;;;5.47;3.85;;;;;;;14.45;100.00;99910.53;5073713;28;20490;-86
2022/07/16 04:52:00;;;;;;;5.45;4.00;;;;;;;14.51;100.00;99920.28;5074961;28;20024;-87
2022/07/16 04:54:26;;;;;;;7.55;3.88;;;;;;;14.43;100.00;99921.28;5074528;28;20500;-87
2022/07/16 04:56:51;;;;;;;7.65;3.60;;;;;;;14.63;100.00;99929.28;5072850;28;20057;-87
2022/07/16 04:59:17;;;;;;;6.40;3.72;;;;;;;14.84;100.00;99920.44;5072856;28;20028;-87
2022/07/16 05:01:43;;;;;;;6.18;3.88;;;;;;;14.96;100.00;99927.75;5073952;28;20115;-86
2022/07/16 05:04:09;;;;;;;4.10;3.05;;;;;;;14.94;100.00;99927.13;5073415;28;20063;-85
2022/07/16 05:06:34;;;;;;;4.28;3.50;;;;;;;14.91;100.00;99928.34;5072777;28;20060;-86
2022/07/16 05:09:01;;;;;;;7.60;3.30;;;;;;;14.89;100.00;99927.75;5055642;28;20441;-87
2022/07/16 05:11:27;;;;;;;6.93;3.33;;;;;;;14.93;100.00;99922.88;5073478;28;20024;-87
2022/07/16 05:13:53;;;;;;;5.55;3.13;;;;;;;14.96;100.00;99920.66;5072707;28;20066;-87
2022/07/16 05:16:19;;;;;;;6.05;3.65;;;;;;;14.97;100.00;99927.56;5072440;28;20968;-88
2022/07/16 05:18:45;;;;;;;5.47;3.00;;;;;;;14.99;100.00;99930.81;5070827;28;20032;-86
2022/07/16 05:21:11;;;;;;;3.83;2.80;;;;;;;15.11;100.00;99925.75;5072130;28;20394;-87
2022/07/16 05:23:36;;;;;;;11.35;3.20;;;;;;;15.27;100.00;99929.00;5072725;28;20032;-87
2022/07/16 05:26:02;;;;;;;9.48;3.15;;;;;;;15.16;100.00;99930.44;5055346;28;20082;-88
2022/07/16 05:28:28;;;;;;;5.60;3.22;;;;;;;15.39;100.00;99937.94;5073124;28;20020;-85
2022/07/16 05:30:54;;;;;;;6.05;3.05;;;;;;;15.45;100.00;99946.91;5072023;28;20035;-86
2022/07/16 05:33:20;;;;;;;5.20;3.03;;;;;;;15.16;100.00;99948.94;5069624;28;20033;-85
2022/07/16 05:35:45;;;;;;;6.05;3.13;;;;;;;15.56;100.00;99945.47;5072058;28;20110;-87
2022/07/16 05:38:11;;;;;;;5.18;3.17;;;;;;;15.30;100.00;99943.63;5072285;28;20032;-87
2022/07/16 05:40:37;;;;;;;6.72;3.40;;;;;;;15.39;100.00;99942.44;5072516;28;20123;-87
2022/07/16 05:43:03;;;;;;;7.00;3.38;;;;;;;15.34;100.00;99939.59;5070050;28;20051;-87
2022/07/16 05:45:30;;;;;;;4.80;2.88;;;;;;;15.70;100.00;99946.25;5054041;28;20024;-87
2022/07/16 05:47:56;;;;;;;6.13;3.25;;;;;;;15.83;100.00;99948.88;5071177;28;20033;-86
2022/07/16 05:50:21;;;;;;;5.65;3.05;;;;;;;15.77;100.00;99941.78;5072629;28;20037;-86
2022/07/16 05:52:47;;;;;;;7.25;3.20;;;;;;;15.80;100.00;99943.19;5072024;28;20025;-85
2022/07/16 05:55:13;;;;;;;9.07;3.40;;;;;;;15.89;100.00;99943.81;5054074;28;20032;-87
2022/07/16 05:57:39;;;;;;;4.38;3.10;;;;;;;16.08;100.00;99940.31;5071764;28;20048;-87
2022/07/16 06:00:09;;;;;;;4.72;2.78;;;;;;;16.16;100.00;99949.06;5070979;28;20044;-87
2022/07/16 06:02:35;;;;;;;3.75;3.08;;;;;;;16.06;100.00;99958.25;5070399;28;20024;-86
2022/07/16 06:05:01;;;;;;;4.55;2.47;;;;;;;15.87;100.00;99953.78;5070539;28;20028;-85
2022/07/16 06:07:26;;;;;;;4.22;3.13;;;;;;;16.22;100.00;99954.34;5071159;28;20474;-87
2022/07/16 06:09:52;;;;;;;6.60;3.15;;;;;;;16.03;100.00;99963.94;5069486;28;20028;-86
2022/07/16 06:12:18;;;;;;;4.30;3.17;;;;;;;16.31;100.00;99956.75;5066703;28;20028;-83
2022/07/16 06:14:44;;;;;;;5.38;2.75;;;;;;;16.25;100.00;99955.72;5070457;28;20900;-84
2022/07/16 06:17:13;;;;;;;5.78;2.85;;;;;;;16.23;100.00;99963.91;5062743;28;20086;-84
2022/07/16 06:19:42;;;;;;;5.22;3.20;;;;;;;16.48;100.00;99965.84;5071487;28;20033;-85
2022/07/16 06:22:08;;;;;;;6.55;3.45;;;;;;;16.25;100.00;99971.63;5070555;28;20421;-86
2022/07/16 06:24:34;;;;;;;5.55;3.10;;;;;;;16.40;100.00;99974.00;5072187;28;20498;-85
2022/07/16 06:27:00;;;;;;;3.92;2.72;;;;;;;16.67;100.00;99979.22;5071532;28;20051;-86
2022/07/16 06:29:29;;;;;;;7.82;3.17;;;;;;;16.64;100.00;99984.94;5068523;28;20055;-85
2022/07/16 06:31:55;;;;;;;4.93;2.90;;;;;;;16.75;100.00;99986.13;5069679;28;20044;-84
2022/07/16 06:34:28;;;;;;;4.45;3.10;;;;;;;17.04;100.00;99983.94;5066566;28;20387;-84
2022/07/16 06:36:53;;;;;;;4.38;3.05;;;;;;;16.92;100.00;99973.16;5070844;28;20028;-85
2022/07/16 06:39:19;;;;;;;4.55;3.30;;;;;;;16.77;100.00;99970.81;5064726;28;20028;-85
2022/07/16 06:41:44;;;;;;;4.82;3.38;;;;;;;17.07;100.00;99983.50;5066507;28;20033;-86
2022/07/16 06:44:10;;;;;;;6.22;2.90;;;;;;;17.01;100.00;99974.59;5063580;28;20043;-86
2022/07/16 06:46:36;;;;;;;4.95;3.20;;;;;;;17.24;100.00;99981.94;5077125;28;20159;-85
2022/07/16 06:49:02;;;;;;;4.13;3.30;;;;;;;17.03;100.00;99984.97;5065536;28;20043;-86
2022/07/16 06:51:28;;;;;;;3.42;2.72;;;;;;;16.97;100.00;99995.38;5071397;28;20028;-86
2022/07/16 06:53:53;;;;;;;5.80;3.10;;;;;;;17.40;100.00;99987.75;5070688;28;20037;-84
2022/07/16 06:56:19;;;;;;;4.10;2.75;;;;;;;17.43;100.00;99989.97;5073855;28;20031;-86
2022/07/16 06:58:45;;;;;;;4.38;2.80;;;;;;;17.51;100.00;99995.03;5068186;28;20483;-85
2022/07/16 07:01:10;;;;;;;7.50;3.20;;;;;;;17.55;100.00;100001.53;5069378;28;20044;-86
2022/07/16 07:03:40;;;;;;;3.17;2.70;;;;;;;17.70;100.00;100003.06;5071622;28;20103;-85
2022/07/16 07:06:07;;;;;;;6.00;2.90;;;;;;;17.42;100.00;100005.09;5074586;28;20095;-85
2022/07/16 07:08:33;;;;;;;4.00;2.90;;;;;;;17.69;100.00;99990.81;5075013;28;20028;-85
2022/07/16 07:11:02;;;;;;;6.35;2.95;;;;;;;17.82;100.00;100009.25;5074356;28;20550;-87
2022/07/16 07:13:30;;;;;;;3.50;2.90;;;;;;;17.93;100.00;100002.41;5071098;28;20033;-87
2022/07/16 07:15:57;;;;;;;4.50;2.80;;;;;;;17.89;100.00;100000.44;5072087;28;20423;-86
2022/07/16 07:18:23;;;;;;;4.25;2.97;;;;;;;18.03;100.00;100001.94;5076102;28;20059;-84
2022/07/16 07:20:49;;;;;;;4.22;2.85;;;;;;;18.11;100.00;100001.66;5070998;28;20037;-84
2022/07/16 07:23:20;;;;;;;4.82;3.17;;;;;;;18.17;100.00;100001.81;5070507;28;20024;-86
2022/07/16 07:25:45;;;;;;;5.50;2.75;;;;;;;18.34;100.00;99997.53;5086382;28;20028;-85
2022/07/16 07:28:11;;;;;;;3.15;2.85;;;;;;;18.31;100.00;100011.25;5065577;28;21204;-82
2022/07/16 07:30:44;;;;;;;3.33;2.85;;;;;;;18.27;100.00;99997.59;5068218;28;20064;-83
2022/07/16 07:33:10;;;;;;;4.88;2.75;;;;;;;18.23;100.00;100003.56;5085452;28;20036;-83
2022/07/16 07:35:35;;;;;;;3.25;2.92;;;;;;;18.32;100.00;99991.63;5068876;28;20040;-82
2022/07/16 07:38:04;;;;;;;3.45;2.88;;;;;;;18.47;100.00;100003.69;5072170;28;20036;-83
2022/07/16 07:40:30;;;;;;;3.25;2.83;;;;;;;18.56;100.00;100015.66;5070411;28;20080;-83
2022/07/16 07:42:55;;;;;;;5.80;2.85;;;;;;;18.66;100.00;100013.28;5069963;28;20028;-82
2022/07/16 07:45:21;;;;;;;5.18;3.03;;;;;;;18.81;100.00;100012.91;5067249;28;21909;-82
2022/07/16 07:47:47;;;;;;;7.80;3.40;;;;;;;18.76;100.00;100017.25;5084491;28;20474;-88
2022/07/16 07:50:13;;;;;;;5.57;2.95;;;;;;;18.86;100.00;100012.19;5074401;28;20036;-88
2022/07/16 07:52:39;;;;;;;4.43;3.03;;;;;;;18.90;100.00;100018.72;5073405;28;20041;-83
2022/07/16 07:55:06;;;;;;;6.07;3.33;;;;;;;19.05;100.00;100022.81;5074479;28;20502;-83
2022/07/16 07:57:33;;;;;;;5.57;3.17;;;;;;;19.03;100.00;100008.94;5074675;28;20498;-85
2022/07/16 08:00:01;;;;;;;4.95;3.50;;;;;;;19.13;100.00;100017.19;5074524;28;20032;-84
2022/07/16 08:02:33;;;;;;;5.30;3.10;;;;;;;19.22;100.00;100015.03;5071026;28;20428;-82
2022/07/16 08:04:59;;;;;;;4.03;3.03;;;;;;;19.25;100.00;100019.88;5054091;28;20063;-83
2022/07/16 08:07:25;;;;;;;3.55;2.80;;;;;;;19.37;100.00;100015.41;5053091;28;20112;-83
2022/07/16 08:09:50;;;;;;;4.90;3.10;;;;;;;19.52;100.00;100022.97;5071211;28;20036;-84
2022/07/16 08:12:17;;;;;;;4.90;3.33;;;;;;;19.60;99.83;100007.66;5056089;28;20055;-84
2022/07/16 08:14:42;;;;;;;4.28;3.00;;;;;;;19.66;97.99;100017.41;5075822;28;20040;-85
2022/07/16 08:17:08;;;;;;;4.18;2.80;;;;;;;19.71;97.88;100025.53;5074323;28;20100;-85
2022/07/16 08:19:34;;;;;;;8.30;3.10;;;;;;;19.84;98.07;100025.28;5073041;28;20036;-85
2022/07/16 08:22:01;;;;;;;6.10;3.08;;;;;;;19.92;97.52;100026.00;5051640;28;20024;-86
2022/07/16 08:27:11;;;;;;;5.30;3.10;;;;;;;20.06;95.67;100006.09;5076935;28;20032;-84
2022/07/16 08:29:39;;;;;;;5.15;2.65;;;;;;;20.33;95.11;100018.06;5075595;28;20445;-86
2022/07/16 08:32:06;;;;;;;3.03;2.35;;;;;;;20.47;95.10;100013.31;5072712;28;21055;-84
2022/07/16 08:34:31;;;;;;;3.75;2.70;;;;;;;20.32;92.44;100013.78;5072671;28;20025;-84
2022/07/16 08:37:01;;;;;;;2.72;2.50;;;;;;;20.46;92.33;100014.34;5075194;28;20033;-85
2022/07/16 08:39:29;;;;;;;4.53;2.72;;;;;;;20.55;92.30;100012.94;5073646;28;20036;-85
2022/07/16 08:41:55;;;;;;;4.05;2.60;;;;;;;20.74;92.85;100020.75;5073206;28;20027;-84
2022/07/16 08:44:21;;;;;;;3.17;2.83;;;;;;;21.02;91.78;100027.97;5070079;28;20074;-84
2022/07/16 08:46:49;;;;;;;8.35;2.78;;;;;;;21.16;90.24;100017.78;5070493;28;20037;-86
2022/07/16 08:49:17;;;;;;;3.17;2.50;;;;;;;21.24;88.38;100025.44;5071963;28;20024;-83
2022/07/16 08:51:44;;;;;;;5.25;2.50;;;;;;;21.22;87.39;100035.53;5074903;28;20032;-85
2022/07/16 08:54:17;;;;;;;5.93;2.65;;;;;;;21.12;86.54;100033.47;5073700;28;20029;-84
2022/07/16 08:56:44;;;;;;;4.00;2.50;;;;;;;21.07;86.59;100029.94;5065687;28;20024;-85
2022/07/16 08:59:10;;;;;;;3.88;2.55;;;;;;;21.29;88.00;100034.56;5068105;28;20035;-84
2022/07/16 09:01:36;;;;;;;4.40;2.30;;;;;;;21.14;86.06;100027.91;5070525;28;20098;-86
2022/07/16 09:04:03;;;;;;;3.08;2.20;;;;;;;21.22;85.97;100032.88;5070429;28;20020;-83
2022/07/16 09:06:30;;;;;;;3.35;2.30;;;;;;;21.37;85.85;100034.97;5071628;28;20051;-85
2022/07/16 09:08:56;;;;;;;2.80;2.38;;;;;;;21.41;83.86;100037.97;5068572;28;20094;-84
2022/07/16 09:11:28;;;;;;;3.42;2.65;;;;;;;21.55;85.86;100036.59;5070284;28;20028;-84
2022/07/16 09:14:11;;;;;;;2.85;2.40;;;;;;;21.72;86.63;100043.81;5068715;28;20039;-81
2022/07/16 09:16:40;;;;;;;4.35;2.75;;;;;;;21.65;85.62;100043.19;5069485;28;20070;-81
2022/07/16 09:19:14;;;;;;;4.80;2.88;;;;;;;21.91;86.11;100039.03;5070320;28;20032;-80
2022/07/16 09:21:58;;;;;;;4.43;2.67;;;;;;;21.94;85.77;100043.91;5068085;28;20036;-80
2022/07/16 09:24:54;;;;;;;5.53;3.20;;;;;;;21.60;84.85;100033.19;5066800;28;20086;-79
2022/07/16 09:27:25;;;;;;;4.50;3.10;;;;;;;21.10;84.75;100045.47;5064130;28;20662;-81
2022/07/16 09:29:59;;;;;;;4.93;3.17;;;;;;;21.17;85.39;100040.78;5066909;28;20075;-80
2022/07/16 09:32:28;;;;;;;4.70;3.50;;;;;;;21.02;84.83;100035.16;5070049;28;20040;-82
2022/07/16 09:35:06;;;;;;;4.68;3.75;;;;;;;20.45;85.72;100034.06;5070757;28;20025;-81
2022/07/16 09:37:53;;;;;;;7.70;3.92;;;;;;;20.34;85.35;100039.19;5070595;28;20033;-81
2022/07/16 09:40:38;;;;;;;4.55;2.83;;;;;;;20.30;86.01;100034.53;5104400;28;20054;-81
2022/07/16 09:43:18;;;;;;;5.15;2.92;;;;;;;20.72;83.41;100038.84;5070447;28;20032;-81
2022/07/16 09:46:05;;;;;;;5.75;2.90;;;;;;;21.06;82.60;100039.00;5067389;28;20017;-82
2022/07/16 09:48:36;;;;;;;5.15;2.95;;;;;;;21.01;84.00;100041.53;5069461;28;20123;-81
2022/07/16 09:51:28;;;;;;;5.38;3.08;;;;;;;21.09;83.45;100041.97;5071399;28;20037;-81
2022/07/16 09:53:55;;;;;;;5.18;3.10;;;;;;;20.74;85.08;100047.44;5052375;28;20032;-81
2022/07/16 09:56:25;;;;;;;4.97;3.42;;;;;;;21.21;84.65;100047.25;5070002;28;20055;-80
2022/07/16 09:59:00;;;;;;;5.63;3.28;;;;;;;21.30;84.48;100044.19;5069175;28;20111;-81
2022/07/16 10:01:25;;;;;;;5.47;2.90;;;;;;;21.26;84.45;100043.84;5066964;28;20029;-81
2022/07/16 10:03:52;;;;;;;6.32;3.00;;;;;;;21.30;83.85;100041.53;5062462;28;20029;-80
2022/07/16 10:06:18;;;;;;;5.28;2.70;;;;;;;21.59;84.41;100046.78;5048780;28;20032;-81
2022/07/16 10:08:45;;;;;;;5.93;3.35;;;;;;;21.57;83.01;100052.38;5071723;28;20505;-81
2022/07/16 10:11:11;;;;;;;3.78;3.22;;;;;;;21.23;82.71;100034.50;5050323;28;20028;-81
2022/07/16 10:13:42;;;;;;;3.47;3.13;;;;;;;21.66;82.93;100040.25;5064103;28;20039;-80
2022/07/16 10:16:08;;;;;;;3.67;2.53;;;;;;;21.98;83.04;100038.84;5068902;28;20120;-80
2022/07/16 10:18:37;;;;;;;7.07;3.47;;;;;;;21.82;82.70;100035.97;5064961;28;20123;-81
2022/07/16 10:21:18;;;;;;;4.40;2.92;;;;;;;21.95;82.97;100031.31;5099950;28;20036;-81
2022/07/16 10:23:49;;;;;;;4.82;3.10;;;;;;;22.09;81.99;100035.28;5064483;28;20375;-82
2022/07/16 10:26:19;;;;;;;3.40;3.10;;;;;;;22.02;82.51;100033.81;5052322;28;20028;-81
2022/07/16 10:28:51;;;;;;;4.53;3.33;;;;;;;22.15;81.26;100032.66;5070027;28;20086;-81
2022/07/16 10:31:36;;;;;;;6.90;3.63;;;;;;;22.03;80.69;100044.28;5069140;28;20429;-81
2022/07/16 10:34:14;;;;;;;5.65;3.17;;;;;;;22.15;80.86;100032.66;5069355;28;20046;-82
2022/07/16 10:36:47;;;;;;;5.07;3.13;;;;;;;21.99;80.48;100034.31;5071129;28;20036;-81
2022/07/16 10:39:16;;;;;;;3.60;3.30;;;;;;;21.79;80.47;100025.75;5071885;28;20447;-82
2022/07/16 10:41:50;;;;;;;5.18;2.88;;;;;;;22.12;80.03;100025.97;5072806;28;20029;-82
2022/07/16 10:44:17;;;;;;;5.45;3.03;;;;;;;21.98;78.79;100030.81;5071247;28;20056;-81
2022/07/16 10:46:58;;;;;;;3.05;2.75;;;;;;;22.21;79.28;100031.69;5068797;28;20107;-82
2022/07/16 10:49:29;;;;;;;5.07;3.10;;;;;;;22.25;78.80;100035.47;5072965;28;20032;-81
2022/07/16 10:52:03;;;;;;;4.05;3.00;;;;;;;22.40;78.54;100030.34;5068519;28;20860;-82
2022/07/16 10:54:41;;;;;;;4.45;3.13;;;;;;;22.45;76.99;100036.78;5068613;28;20035;-82
2022/07/16 10:57:10;;;;;;;3.70;2.97;;;;;;;22.46;77.01;100036.53;5067612;28;20038;-81
2022/07/16 10:59:43;;;;;;;4.40;3.08;;;;;;;22.60;76.56;100026.31;5101733;28;20043;-83
2022/07/16 11:02:13;;;;;;;3.42;2.80;;;;;;;22.73;76.41;100040.34;5069196;28;20036;-81
2022/07/16 11:04:42;;;;;;;3.10;2.80;;;;;;;22.77;75.28;100033.41;5070236;28;20031;-82
2022/07/16 11:07:09;;;;;;;3.20;2.90;;;;;;;22.85;76.39;100024.97;5074617;28;20560;-81
2022/07/16 11:09:38;;;;;;;4.15;2.90;;;;;;;22.91;75.72;100041.88;5071931;28;20056;-82
2022/07/16 11:12:15;;;;;;;6.75;3.50;;;;;;;23.12;75.34;100034.84;5070826;28;20056;-81
2022/07/16 11:14:44;;;;;;;3.55;2.97;;;;;;;23.10;74.54;100028.94;5067288;28;20521;-82
2022/07/16 11:17:10;;;;;;;4.18;3.80;;;;;;;23.23;76.35;100033.06;5071539;28;20043;-81
2022/07/16 11:19:49;;;;;;;5.63;4.43;;;;;;;23.31;76.40;100021.13;5071246;28;20036;-81
2022/07/16 11:22:27;;;;;;;3.40;3.10;;;;;;;22.87;74.26;100022.84;5086507;28;20040;-81
2022/07/16 11:24:55;;;;;;;3.10;2.88;;;;;;;22.72;73.76;100020.00;5065359;28;20040;-82
2022/07/16 11:27:36;;;;;;;5.05;3.08;;;;;;;22.54;74.37;100022.75;5044327;28;20056;-82
2022/07/16 11:30:07;;;;;;;3.67;3.38;;;;;;;22.96;73.85;100026.66;5066946;28;20044;-81
2022/07/16 11:32:41;;;;;;;3.90;3.00;;;;;;;23.10;71.23;100021.72;5068769;28;20123;-83
2022/07/16 11:35:08;;;;;;;4.25;3.30;;;;;;;23.38;71.69;100013.66;5070071;28;20116;-81
2022/07/16 11:37:53;;;;;;;4.03;3.58;;;;;;;23.68;71.61;100037.22;5062607;28;20036;-82